Time;durP1;ratioP1;P1;durP2;ratioP2;P2;SDS_P1;SDS_P2;PMS_P1;PMS_P2;Temp;Humidity;BMP_temperature;BMP_pressure;BME280_temperature;BME280_humidity;BME280_pressure;Samples;Min_cycle;Max_cycle;Signal;HPM_P1;HPM_P2
2023/05/29 00:01:54;;;;;;;;;;;;;;;22.91;48.21;101363.70;2266075;76;49773;-78
2023/05/29 00:04:56;;;;;;;;;;;;;;;22.91;48.22;101361.00;2335443;74;51656;-78
2023/05/29 00:07:58;;;;;;;;;;;;;;;22.90;48.17;101350.73;2261600;77;53321;-78
2023/05/29 00:10:59;;;;;;;;;;;;;;;22.90;48.19;101353.43;2287940;77;50329;-78
2023/05/29 00:14:01;;;;;;;;;;;;;;;22.91;48.20;101350.21;2237292;77;51053;-78
2023/05/29 00:17:03;;;;;;;;;;;;;;;22.89;48.16;101353.61;2261857;77;51585;-77
2023/05/29 00:23:27;;;;;;;;;;;;;;;22.90;48.18;101355.30;2286578;78;23272;-77
2023/05/29 00:26:29;;;;;;;;;;;;;;;22.89;48.19;101358.52;2285719;77;49660;-77
2023/05/29 00:29:30;;;;;;;;;;;;;;;22.89;48.17;101361.22;2279214;77;50444;-77
2023/05/29 00:32:32;;;;;;;;;;;;;;;22.89;48.19;101361.70;2290979;77;50429;-78
2023/05/29 00:35:34;;;;;;;;;;;;;;;22.88;48.17;101363.58;2293148;77;50418;-78
2023/05/29 00:38:35;;;;;;;;;;;;;;;22.88;48.18;101362.75;2292819;76;52380;-77
2023/05/29 00:41:37;;;;;;;;;;;;;;;22.89;48.17;101359.01;2293128;77;51639;-78
2023/05/29 00:44:38;;;;;;;;;;;;;;;22.87;48.21;101359.74;2290936;77;50393;-78
2023/05/29 00:47:41;;;;;;;;;;;;;;;22.87;48.21;101363.79;2292792;77;50241;-77
2023/05/29 00:50:42;;;;;;;;;;;;;;;22.87;48.19;101353.00;2293041;76;51046;-78
2023/05/29 00:53:44;;;;;;;;;;;;;;;22.87;48.21;101355.70;2291111;77;50442;-78
2023/05/29 00:56:45;;;;;;;;;;;;;;;22.86;48.20;101351.31;2290811;77;51421;-78
2023/05/29 00:59:47;;;;;;;;;;;;;;;22.86;48.16;101352.14;2265936;76;51551;-78
2023/05/29 01:02:49;;;;;;;;;;;;;;;22.87;48.18;101359.74;2251535;78;52202;-78
2023/05/29 01:05:52;;;;;;;;;;;;;;;22.85;48.21;101351.00;2252047;78;51602;-77
2023/05/29 01:08:53;;;;;;;;;;;;;;;22.83;48.21;101356.06;2251968;77;50365;-78
2023/05/29 01:12:08;;;;;;;;;;;;;;;22.84;48.20;101354.22;2251783;78;50510;-78
2023/05/29 01:15:24;;;;;;;;;;;;;;;22.83;48.19;101352.01;2226188;79;51490;-78
2023/05/29 01:18:27;;;;;;;;;;;;;;;22.83;48.18;101356.58;2251784;77;50383;-78
2023/05/29 01:21:36;;;;;;;;;;;;;;;22.83;48.20;101358.76;2249399;77;50330;-78
2023/05/29 01:24:38;;;;;;;;;;;;;;;22.81;48.19;101355.45;2252097;78;50457;-78
2023/05/29 01:27:40;;;;;;;;;;;;;;;22.82;48.17;101358.45;2264228;77;51127;-78
2023/05/29 01:30:41;;;;;;;;;;;;;;;22.80;48.19;101353.75;2277896;77;51435;-77
2023/05/29 01:33:43;;;;;;;;;;;;;;;22.81;48.19;101355.45;2290936;77;50356;-78
2023/05/29 01:36:46;;;;;;;;;;;;;;;22.81;48.18;101363.54;2292979;77;52441;-77
2023/05/29 01:39:47;;;;;;;;;;;;;;;22.79;48.20;101362.89;2293250;76;51139;-77
2023/05/29 01:42:49;;;;;;;;;;;;;;;22.79;48.21;101368.81;2291315;77;51572;-78
2023/05/29 01:45:51;;;;;;;;;;;;;;;22.80;48.20;101360.50;2291129;77;50811;-77
2023/05/29 01:48:53;;;;;;;;;;;;;;;22.80;48.19;101368.59;2290881;76;51507;-78
2023/05/29 01:51:55;;;;;;;;;;;;;;;22.80;48.21;101368.59;2293192;77;51835;-78
2023/05/29 01:54:56;;;;;;;;;;;;;;;22.79;48.21;101376.37;2290897;77;50455;-77
2023/05/29 01:57:58;;;;;;;;;;;;;;;22.79;48.19;101375.55;2290664;77;50301;-77
2023/05/29 02:01:00;;;;;;;;;;;;;;;22.78;48.19;101373.34;2251983;77;50722;-78
2023/05/29 02:04:01;;;;;;;;;;;;;;;22.78;48.17;101376.56;2251415;78;52442;-78
2023/05/29 02:07:03;;;;;;;;;;;;;;;22.78;48.19;101369.81;2251418;77;51582;-78
2023/05/29 02:10:05;;;;;;;;;;;;;;;22.78;48.15;101371.99;2251841;77;50496;-77
2023/05/29 02:13:06;;;;;;;;;;;;;;;22.77;48.21;101374.38;2251725;79;51948;-78
2023/05/29 02:16:08;;;;;;;;;;;;;;;22.75;48.23;101380.48;2251823;78;49665;-78
2023/05/29 02:19:10;;;;;;;;;;;;;;;22.77;48.20;101383.00;2252009;77;50301;-78
2023/05/29 02:22:12;;;;;;;;;;;;;;;22.77;48.20;101375.73;2252708;77;51618;-80
2023/05/29 02:25:14;;;;;;;;;;;;;;;22.77;48.20;101383.00;2252796;79;50718;-79
2023/05/29 02:28:15;;;;;;;;;;;;;;;22.76;48.22;101382.17;2255706;77;50672;-78
2023/05/29 02:31:17;;;;;;;;;;;;;;;22.75;48.24;101378.30;2262465;77;51545;-78
2023/05/29 02:34:18;;;;;;;;;;;;;;;22.74;48.26;101374.78;2252471;79;50748;-77
2023/05/29 02:37:20;;;;;;;;;;;;;;;22.73;48.20;101375.78;2252417;78;50772;-78
2023/05/29 02:40:22;;;;;;;;;;;;;;;22.74;48.21;101372.08;2252000;77;52836;-77
2023/05/29 02:43:23;;;;;;;;;;;;;;;22.74;48.26;101378.00;2252129;78;50683;-78
2023/05/29 02:46:25;;;;;;;;;;;;;;;22.75;48.23;101379.66;2252162;78;50358;-77
2023/05/29 02:49:26;;;;;;;;;;;;;;;22.73;48.22;101374.44;2251993;77;50381;-77
2023/05/29 02:52:30;;;;;;;;;;;;;;;22.74;48.22;101382.87;2251574;78;50082;-77
2023/05/29 02:55:35;;;;;;;;;;;;;;;22.74;48.25;101380.70;2255861;77;51531;-77
2023/05/29 02:58:35;;;;;;;;;;;;;;;22.73;48.27;101391.14;2256027;77;22482;-77
2023/05/29 03:01:37;;;;;;;;;;;;;;;22.72;48.25;101388.97;2285324;77;51582;-77
2023/05/29 03:04:39;;;;;;;;;;;;;;;22.72;48.20;101382.22;2293105;77;49611;-77
2023/05/29 03:07:41;;;;;;;;;;;;;;;22.72;48.22;101387.62;2292815;77;51543;-76
2023/05/29 03:10:43;;;;;;;;;;;;;;;22.73;48.22;101381.70;2291406;76;50708;-76
2023/05/29 03:13:46;;;;;;;;;;;;;;;22.72;48.20;101384.09;2292566;77;50748;-77
2023/05/29 03:16:50;;;;;;;;;;;;;;;22.72;48.23;101382.74;2292494;77;51795;-77
2023/05/29 03:19:51;;;;;;;;;;;;;;;22.72;48.23;101385.44;2292013;76;50698;-77
2023/05/29 03:22:53;;;;;;;;;;;;;;;22.72;48.22;101390.31;2296129;77;50714;-77
2023/05/29 03:25:55;;;;;;;;;;;;;;;22.72;48.25;101393.53;2291141;77;51474;-77
2023/05/29 03:28:56;;;;;;;;;;;;;;;22.71;48.21;101392.70;2266874;77;51050;-77
2023/05/29 03:31:58;;;;;;;;;;;;;;;22.72;48.20;101398.41;2290575;77;50722;-77
2023/05/29 03:35:00;;;;;;;;;;;;;;;22.71;48.24;101400.80;2296812;76;50224;-78
2023/05/29 03:38:02;;;;;;;;;;;;;;;22.69;48.24;101405.55;2293346;77;51652;-78
2023/05/29 03:41:03;;;;;;;;;;;;;;;22.69;48.24;101398.80;2293534;76;52720;-77
2023/05/29 03:44:05;;;;;;;;;;;;;;;22.70;48.21;101399.11;2291522;77;50406;-77
2023/05/29 03:47:08;;;;;;;;;;;;;;;22.71;48.18;101405.34;2296651;77;50247;-78
2023/05/29 03:50:11;;;;;;;;;;;;;;;22.70;48.22;101408.55;2292736;76;51676;-78
2023/05/29 03:53:12;;;;;;;;;;;;;;;22.70;48.23;101402.33;2293261;77;50167;-78
2023/05/29 03:56:14;;;;;;;;;;;;;;;22.70;48.23;101407.72;2293145;77;50697;-77
2023/05/29 03:59:16;;;;;;;;;;;;;;;22.69;48.22;101407.41;2275915;77;51564;-78
2023/05/29 04:02:18;;;;;;;;;;;;;;;22.70;48.20;101409.90;2293379;76;50715;-78
2023/05/29 04:05:19;;;;;;;;;;;;;;;22.70;48.20;101411.77;2293204;77;52677;-77
2023/05/29 04:08:21;;;;;;;;;;;;;;;22.72;48.16;101415.95;2290992;76;50638;-78
2023/05/29 04:11:23;;;;;;;;;;;;;;;22.71;48.17;101406.19;2292964;77;50416;-77
2023/05/29 04:14:24;;;;;;;;;;;;;;;22.70;48.20;101415.30;2291256;77;50804;-78
2023/05/29 04:17:26;;;;;;;;;;;;;;;22.69;48.18;101417.69;2292910;77;50802;-77
2023/05/29 04:20:27;;;;;;;;;;;;;;;22.71;48.18;101418.83;2291221;76;50246;-79
2023/05/29 04:23:29;;;;;;;;;;;;;;;22.70;48.18;101412.59;2293447;77;50398;-78
2023/05/29 04:26:32;;;;;;;;;;;;;;;22.70;48.21;101419.34;2290931;77;51547;-78
2023/05/29 04:29:34;;;;;;;;;;;;;;;22.70;48.18;101420.69;2263504;77;50744;-78
2023/05/29 04:32:36;;;;;;;;;;;;;;;22.71;48.19;101426.42;2291148;77;50454;-78
2023/05/29 04:35:37;;;;;;;;;;;;;;;22.72;48.16;101421.34;2291192;77;50406;-78
2023/05/29 04:38:39;;;;;;;;;;;;;;;22.71;48.19;101421.52;2290707;76;50777;-78
2023/05/29 04:41:41;;;;;;;;;;;;;;;22.73;48.17;101423.00;2291381;77;50357;-78
2023/05/29 04:44:43;;;;;;;;;;;;;;;22.71;48.30;101426.91;2291318;77;51586;-78
2023/05/29 04:47:45;;;;;;;;;;;;;;;22.72;48.27;101428.09;2293339;77;51679;-78
2023/05/29 04:50:48;;;;;;;;;;;;;;;22.76;48.17;101419.95;2293304;76;50715;-77
2023/05/29 04:53:55;;;;;;;;;;;;;;;22.82;48.10;101423.21;2290967;77;52685;-78
2023/05/29 04:56:54;;;;;;;;;;;;;;;22.93;47.83;101431.30;2289473;77;22826;-78
2023/05/29 04:59:55;;;;;;;;;;;;;;;22.97;47.70;101429.93;2277045;77;51634;-77
2023/05/29 05:02:57;;;;;;;;;;;;;;;22.97;47.71;101431.80;2294347;77;50794;-79
2023/05/29 05:06:00;;;;;;;;;;;;;;;22.90;47.91;101430.86;2290876;77;50719;-76
2023/05/29 05:09:01;;;;;;;;;;;;;;;22.88;47.99;101428.86;2291000;76;51505;-77
2023/05/29 05:12:03;;;;;;;;;;;;;;;22.89;47.95;101430.52;2292947;77;51036;-78
2023/05/29 05:15:05;;;;;;;;;;;;;;;22.89;47.92;101429.17;2293036;77;53866;-77
2023/05/29 05:18:07;;;;;;;;;;;;;;;22.87;47.98;101429.91;2266112;77;52573;-77
2023/05/29 05:21:08;;;;;;;;;;;;;;;22.93;47.91;101438.56;2293251;76;51455;-77
2023/05/29 05:24:10;;;;;;;;;;;;;;;23.02;47.71;101437.45;2269235;77;51514;-78
2023/05/29 05:27:11;;;;;;;;;;;;;;;23.06;47.71;101434.67;2242089;79;50316;-77
2023/05/29 05:30:13;;;;;;;;;;;;;;;23.11;47.58;101437.63;2212173;79;51599;-77
2023/05/29 05:33:15;;;;;;;;;;;;;;;23.20;47.46;101435.64;2210281;79;50326;-77
2023/05/29 05:36:16;;;;;;;;;;;;;;;23.23;47.38;101442.00;2206278;79;50459;-77
2023/05/29 05:39:18;;;;;;;;;;;;;;;23.29;47.29;101445.77;2210697;79;50654;-78
2023/05/29 05:42:20;;;;;;;;;;;;;;;23.30;47.28;101440.19;2154741;81;51085;-77
2023/05/29 05:45:21;;;;;;;;;;;;;;;23.29;47.27;101429.58;2206962;80;50408;-78
2023/05/29 05:48:23;;;;;;;;;;;;;;;23.34;47.10;101440.10;2166702;82;50711;-77
2023/05/29 05:51:25;;;;;;;;;;;;;;;23.35;47.07;101443.63;2219576;78;50464;-77
2023/05/29 05:54:26;;;;;;;;;;;;;;;23.39;47.05;101448.98;2206390;80;49678;-77
2023/05/29 05:57:28;;;;;;;;;;;;;;;23.43;46.99;101453.80;2205214;80;50416;-78
2023/05/29 06:00:29;;;;;;;;;;;;;;;23.44;46.97;101448.70;2223766;79;51506;-77
2023/05/29 06:03:33;;;;;;;;;;;;;;;23.48;46.91;101463.50;2197268;80;50232;-76
2023/05/29 06:06:34;;;;;;;;;;;;;;;23.47;46.96;101467.73;2210207;79;52643;-77
2023/05/29 06:09:37;;;;;;;;;;;;;;;23.53;46.85;101460.22;2206876;80;50842;-77
2023/05/29 06:12:38;;;;;;;;;;;;;;;23.51;46.88;101460.92;2206814;79;50342;-77
2023/05/29 06:15:40;;;;;;;;;;;;;;;23.54;46.87;101467.27;2210578;79;50489;-77
2023/05/29 06:18:41;;;;;;;;;;;;;;;23.57;46.80;101460.64;2206070;79;51484;-77
2023/05/29 06:21:43;;;;;;;;;;;;;;;23.61;46.77;101468.17;2209593;79;51309;-77
2023/05/29 06:24:44;;;;;;;;;;;;;;;23.65;46.68;101470.77;2273580;77;50456;-77
2023/05/29 06:27:46;;;;;;;;;;;;;;;23.70;46.59;101474.25;2279533;77;50757;-77
2023/05/29 06:30:48;;;;;;;;;;;;;;;23.74;46.47;101474.70;2253489;78;50808;-77
2023/05/29 06:33:50;;;;;;;;;;;;;;;23.75;46.49;101481.80;2227182;79;50985;-77
2023/05/29 06:36:51;;;;;;;;;;;;;;;23.68;46.58;101485.76;2238254;79;50344;-76
2023/05/29 06:39:53;;;;;;;;;;;;;;;23.69;46.52;101483.39;2256893;77;50845;-78
2023/05/29 06:42:55;;;;;;;;;;;;;;;23.67;46.49;101480.87;2256184;79;51414;-77
2023/05/29 06:45:56;;;;;;;;;;;;;;;23.64;46.59;101495.31;2258218;78;51554;-77
2023/05/29 06:48:58;;;;;;;;;;;;;;;23.63;46.46;101484.99;2257562;78;51580;-77
2023/05/29 06:52:00;;;;;;;;;;;;;;;23.65;46.44;101482.94;2228710;78;51408;-77
2023/05/29 06:55:02;;;;;;;;;;;;;;;23.71;46.39;101496.17;2253853;79;51532;-76
2023/05/29 06:58:03;;;;;;;;;;;;;;;23.73;46.36;101484.69;2237930;77;50128;-77
2023/05/29 07:01:05;;;;;;;;;;;;;;;23.79;46.32;101488.46;2247189;79;50383;-77
2023/05/29 07:04:07;;;;;;;;;;;;;;;23.74;46.42;101492.27;2251898;79;51532;-78
2023/05/29 07:07:09;;;;;;;;;;;;;;;23.81;46.22;101494.51;2251594;79;51524;-78
2023/05/29 07:10:10;;;;;;;;;;;;;;;23.81;46.22;101491.28;2222387;79;50127;-77
2023/05/29 07:13:16;;;;;;;;;;;;;;;23.84;46.12;101500.86;2246115;79;50656;-77
2023/05/29 07:16:18;;;;;;;;;;;;;;;23.84;46.14;101504.43;2251351;79;50823;-77
2023/05/29 07:19:20;;;;;;;;;;;;;;;23.85;46.11;101505.26;2246085;79;50558;-77
2023/05/29 07:22:21;;;;;;;;;;;;;;;23.85;46.19;101498.50;2221849;79;51007;-77
2023/05/29 07:25:23;;;;;;;;;;;;;;;23.85;46.13;101502.55;2251633;79;51503;-77
2023/05/29 07:28:25;;;;;;;;;;;;;;;23.80;46.24;101510.42;2234308;79;49748;-77
2023/05/29 07:31:26;;;;;;;;;;;;;;;23.80;46.14;101506.36;2252308;79;50331;-78
2023/05/29 07:34:28;;;;;;;;;;;;;;;23.77;46.18;101508.95;2223253;80;50103;-77
2023/05/29 07:37:30;;;;;;;;;;;;;;;23.74;46.28;101505.78;2239349;79;51312;-78
2023/05/29 07:40:31;;;;;;;;;;;;;;;23.76;46.18;101505.91;2236292;79;50033;-78
2023/05/29 07:43:33;;;;;;;;;;;;;;;23.79;46.17;101511.43;2239470;79;50060;-77
2023/05/29 07:46:35;;;;;;;;;;;;;;;23.76;46.28;101508.61;2222068;79;51620;-77
2023/05/29 07:49:36;;;;;;;;;;;;;;;23.76;46.18;101507.78;2223202;79;50268;-77
2023/05/29 07:52:38;;;;;;;;;;;;;;;23.77;46.17;101513.52;2239599;79;50392;-77
2023/05/29 07:55:40;;;;;;;;;;;;;;;23.81;46.11;101520.19;2239723;78;50428;-78
2023/05/29 07:58:41;;;;;;;;;;;;;;;23.81;46.09;101510.73;2210111;80;51817;-76
2023/05/29 08:01:44;;;;;;;;;;;;;;;23.83;46.03;101523.53;2213941;79;50438;-77
2023/05/29 08:04:46;;;;;;;;;;;;;;;23.81;46.08;101524.23;2232213;78;52431;-77
2023/05/29 08:07:48;;;;;;;;;;;;;;;23.84;46.01;101523.34;2229229;80;50719;-77
2023/05/29 08:10:49;;;;;;;;;;;;;;;23.77;46.09;101524.33;2221851;79;51475;-77
2023/05/29 08:13:51;;;;;;;;;;;;;;;23.79;46.04;101527.64;2253855;78;49983;-76
2023/05/29 08:16:53;;;;;;;;;;;;;;;23.78;46.06;101523.28;2245813;79;50758;-77
2023/05/29 08:19:54;;;;;;;;;;;;;;;23.75;46.14;101527.22;2218558;79;51442;-77
2023/05/29 08:22:56;;;;;;;;;;;;;;;23.73;46.09;101533.33;2195970;80;51258;-77
2023/05/29 08:25:58;;;;;;;;;;;;;;;23.73;46.13;101523.04;2219987;79;50765;-77
2023/05/29 08:28:59;;;;;;;;;;;;;;;23.71;46.13;101521.84;2252317;78;51468;-77
2023/05/29 08:32:01;;;;;;;;;;;;;;;23.68;46.16;101523.59;2238619;79;50471;-77
2023/05/29 08:35:04;;;;;;;;;;;;;;;23.64;46.21;101523.68;2242902;79;51232;-77
2023/05/29 08:38:06;;;;;;;;;;;;;;;23.66;46.12;101521.09;2250357;79;50521;-77
2023/05/29 08:41:08;;;;;;;;;;;;;;;23.68;46.11;101521.72;2250517;79;50336;-77
2023/05/29 08:44:10;;;;;;;;;;;;;;;23.68;46.12;101516.31;2250593;79;50737;-78
2023/05/29 08:47:16;;;;;;;;;;;;;;;23.69;46.10;101513.95;2218364;79;52588;-77
2023/05/29 08:50:15;;;;;;;;;;;;;;;23.69;46.17;101513.95;2249997;79;22132;-77
2023/05/29 08:53:18;;;;;;;;;;;;;;;23.69;46.10;101515.30;2250468;79;51506;-77
2023/05/29 08:56:22;;;;;;;;;;;;;;;23.69;46.08;101516.65;2250243;79;50429;-77
2023/05/29 08:59:23;;;;;;;;;;;;;;;23.67;46.05;101513.30;2207067;79;52813;-77
2023/05/29 09:02:25;;;;;;;;;;;;;;;23.66;46.22;101510.30;2177802;81;50732;-77
2023/05/29 09:05:27;;;;;;;;;;;;;;;23.66;46.16;101519.75;2177950;80;51566;-77
2023/05/29 09:08:28;;;;;;;;;;;;;;;23.66;46.16;101513.00;2215675;80;50372;-77
2023/05/29 09:11:30;;;;;;;;;;;;;;;23.65;46.19;101516.70;2215894;80;50864;-77
2023/05/29 09:14:35;;;;;;;;;;;;;;;23.65;46.16;101514.01;2215197;80;51554;-77
2023/05/29 09:17:37;;;;;;;;;;;;;;;23.63;46.17;101505.25;2215991;80;51469;-78
2023/05/29 09:20:39;;;;;;;;;;;;;;;23.62;46.18;101508.17;2216156;80;52647;-78
2023/05/29 09:23:41;;;;;;;;;;;;;;;23.59;46.27;101509.40;2215692;80;49628;-78
2023/05/29 09:26:44;;;;;;;;;;;;;;;23.59;46.27;101512.63;2227250;79;51521;-78
2023/05/29 09:29:46;;;;;;;;;;;;;;;23.58;46.28;101506.39;2237671;78;51592;-78
2023/05/29 09:32:49;;;;;;;;;;;;;;;23.53;46.43;101513.38;2194780;79;49457;-78
2023/05/29 09:35:51;;;;;;;;;;;;;;;23.50;46.48;101520.02;2222075;78;52732;-78
2023/05/29 09:38:52;;;;;;;;;;;;;;;23.51;46.50;101524.92;2293133;76;51461;-78
2023/05/29 09:41:54;;;;;;;;;;;;;;;23.52;46.44;101527.41;2292988;77;50312;-79
2023/05/29 09:44:56;;;;;;;;;;;;;;;23.50;46.48;101525.41;2290920;77;50113;-78
2023/05/29 09:47:58;;;;;;;;;;;;;;;23.46;46.56;101529.03;2292922;77;51083;-78
2023/05/29 09:51:01;;;;;;;;;;;;;;;23.47;46.60;101521.76;2291002;76;51717;-78
2023/05/29 09:54:04;;;;;;;;;;;;;;;23.47;46.57;101524.45;2291049;77;51533;-78
2023/05/29 09:57:06;;;;;;;;;;;;;;;23.49;46.52;101517.00;2281373;77;51448;-77
2023/05/29 10:00:12;;;;;;;;;;;;;;;23.45;46.60;101511.66;2262648;76;51044;-78
2023/05/29 10:03:14;;;;;;;;;;;;;;;23.43;46.63;101517.80;2283944;77;22313;-78
2023/05/29 10:06:17;;;;;;;;;;;;;;;23.47;46.57;101510.95;2290671;77;51508;-78
2023/05/29 10:09:19;;;;;;;;;;;;;;;23.49;46.54;101508.90;2291017;76;50382;-77
2023/05/29 10:12:25;;;;;;;;;;;;;;;23.44;46.58;101497.32;2293126;77;51492;-78
2023/05/29 10:15:24;;;;;;;;;;;;;;;23.42;46.67;101497.20;2289877;77;22431;-77
2023/05/29 10:18:27;;;;;;;;;;;;;;;23.43;46.67;101498.89;2290574;76;50645;-78
2023/05/29 10:21:28;;;;;;;;;;;;;;;23.41;46.75;101491.48;2289856;77;51487;-78
2023/05/29 10:24:30;;;;;;;;;;;;;;;23.42;46.72;101503.42;2293286;77;49137;-78
2023/05/29 10:27:32;;;;;;;;;;;;;;;23.41;46.74;101502.29;2284461;77;51667;-78
2023/05/29 10:30:38;;;;;;;;;;;;;;;23.42;46.71;101508.83;2251503;79;51461;-78
2023/05/29 10:33:54;;;;;;;;;;;;;;;23.39;46.83;101507.05;2222863;79;50425;-79
2023/05/29 10:37:06;;;;;;;;;;;;;;;23.38;46.80;101504.86;2224282;78;52419;-78
2023/05/29 10:40:13;;;;;;;;;;;;;;;23.40;46.79;101504.65;2213329;79;50276;-78
2023/05/29 10:43:31;;;;;;;;;;;;;;;23.37;46.84;101499.64;2251379;78;22367;-78
2023/05/29 10:46:47;;;;;;;;;;;;;;;23.39;46.74;101502.47;2251552;79;50615;-78
2023/05/29 10:49:50;;;;;;;;;;;;;;;23.39;46.71;101498.42;2225744;78;50142;-78
2023/05/29 10:52:52;;;;;;;;;;;;;;;23.40;46.76;101492.50;2251776;79;51590;-78
2023/05/29 10:55:54;;;;;;;;;;;;;;;23.39;46.79;101492.19;2251885;79;50459;-77
2023/05/29 10:58:57;;;;;;;;;;;;;;;23.37;46.83;101482.09;2271548;77;50773;-78
2023/05/29 11:02:00;;;;;;;;;;;;;;;23.40;46.75;101487.95;2289738;77;50680;-77
2023/05/29 11:05:03;;;;;;;;;;;;;;;23.41;46.71;101482.86;2290673;77;51527;-78
2023/05/29 11:08:06;;;;;;;;;;;;;;;23.41;46.74;101495.53;2281870;77;51498;-77
2023/05/29 11:11:08;;;;;;;;;;;;;;;23.42;46.70;101489.09;2293124;76;50734;-78
2023/05/29 11:14:09;;;;;;;;;;;;;;;23.39;46.76;101474.63;2293083;77;49622;-77
2023/05/29 11:17:13;;;;;;;;;;;;;;;23.38;46.78;101480.55;2290306;77;50402;-78
2023/05/29 11:20:16;;;;;;;;;;;;;;;23.41;46.73;101482.86;2291267;76;50503;-78
2023/05/29 11:23:18;;;;;;;;;;;;;;;23.43;46.71;101478.63;2291104;77;49890;-78
2023/05/29 11:26:23;;;;;;;;;;;;;;;23.42;46.69;101489.09;2293182;77;51141;-78
2023/05/29 11:29:26;;;;;;;;;;;;;;;23.45;46.68;101479.24;2284963;76;51596;-77
2023/05/29 11:32:28;;;;;;;;;;;;;;;23.44;46.68;101478.94;2252125;76;50884;-77
2023/05/29 11:35:31;;;;;;;;;;;;;;;23.40;46.83;101484.39;2251569;79;50704;-78
2023/05/29 11:38:32;;;;;;;;;;;;;;;23.40;46.78;101475.80;2251298;77;50137;-78
2023/05/29 11:41:34;;;;;;;;;;;;;;;23.43;46.72;101475.41;2252053;78;51466;-77
2023/05/29 11:44:36;;;;;;;;;;;;;;;23.40;46.77;101470.89;2251793;78;51592;-76
2023/05/29 11:47:55;;;;;;;;;;;;;;;23.44;46.72;101474.88;2251195;78;50753;-76
2023/05/29 11:50:56;;;;;;;;;;;;;;;23.44;46.71;101472.18;2225895;79;51339;-78
2023/05/29 11:53:58;;;;;;;;;;;;;;;23.46;46.70;101478.23;2252878;77;50300;-77
2023/05/29 11:57:00;;;;;;;;;;;;;;;23.43;46.75;101479.98;2252399;78;50657;-78
2023/05/29 12:00:01;;;;;;;;;;;;;;;23.45;46.69;101467.09;2272590;77;50359;-78
2023/05/29 12:03:04;;;;;;;;;;;;;;;23.45;46.72;101463.03;2251470;78;50080;-78
2023/05/29 12:06:06;;;;;;;;;;;;;;;23.46;46.69;101466.08;2252503;77;50716;-75
2023/05/29 12:09:09;;;;;;;;;;;;;;;23.43;46.76;101471.88;2251456;77;50812;-76
2023/05/29 12:12:10;;;;;;;;;;;;;;;23.44;46.78;101468.13;2251629;78;50417;-77
2023/05/29 12:15:13;;;;;;;;;;;;;;;23.44;46.73;101462.73;2251290;77;50760;-77
2023/05/29 12:18:14;;;;;;;;;;;;;;;23.43;46.80;101463.77;2251343;78;50006;-77
2023/05/29 12:21:16;;;;;;;;;;;;;;;23.43;46.78;101452.45;2251798;77;51496;-77
2023/05/29 12:24:20;;;;;;;;;;;;;;;23.43;46.70;101450.27;2251942;78;51607;-77
2023/05/29 12:27:22;;;;;;;;;;;;;;;23.41;46.79;101452.32;2253273;77;51304;-78
2023/05/29 12:30:24;;;;;;;;;;;;;;;23.40;46.82;101460.09;2270568;77;50412;-77
2023/05/29 12:33:28;;;;;;;;;;;;;;;23.37;46.88;101457.78;2251901;78;50723;-77
2023/05/29 12:36:30;;;;;;;;;;;;;;;23.39;46.88;101457.91;2251896;78;51197;-77
2023/05/29 12:39:32;;;;;;;;;;;;;;;23.41;46.83;101458.55;2251418;77;49683;-77
2023/05/29 12:42:34;;;;;;;;;;;;;;;23.40;46.91;101462.30;2251559;78;50433;-77
2023/05/29 12:45:35;;;;;;;;;;;;;;;23.42;46.82;101454.81;2252050;78;50765;-77
2023/05/29 12:48:37;;;;;;;;;;;;;;;23.41;46.87;101457.20;2251053;77;51553;-77
2023/05/29 12:51:40;;;;;;;;;;;;;;;23.42;46.89;101453.45;2227212;78;52633;-77
2023/05/29 12:54:42;;;;;;;;;;;;;;;23.47;46.81;101452.88;2252413;77;52694;-77
2023/05/29 12:57:45;;;;;;;;;;;;;;;23.43;46.89;101455.67;2252144;78;51531;-77
2023/05/29 13:00:47;;;;;;;;;;;;;;;23.43;46.89;101452.97;2265266;77;22308;-77
2023/05/29 13:03:48;;;;;;;;;;;;;;;23.42;47.00;101452.62;2251692;77;50881;-77
2023/05/29 13:06:50;;;;;;;;;;;;;;;23.40;47.05;101456.03;2251691;78;50419;-76
2023/05/29 13:09:52;;;;;;;;;;;;;;;23.38;47.13;101450.02;2251816;77;50739;-76
2023/05/29 13:12:54;;;;;;;;;;;;;;;23.36;47.19;101444.80;2251675;78;51575;-77
2023/05/29 13:15:56;;;;;;;;;;;;;;;23.38;47.16;101439.22;2254460;77;51600;-77
2023/05/29 13:18:57;;;;;;;;;;;;;;;23.40;47.11;101431.73;2251586;77;52372;-77
2023/05/29 13:22:00;;;;;;;;;;;;;;;23.39;47.12;101428.20;2251529;79;50398;-77
2023/05/29 13:25:01;;;;;;;;;;;;;;;23.41;47.07;101433.42;2251581;77;51451;-77
2023/05/29 13:28:03;;;;;;;;;;;;;;;23.41;47.14;101426.66;2259663;77;51016;-77
2023/05/29 13:31:04;;;;;;;;;;;;;;;23.41;47.12;101427.49;2226070;78;51309;-77
2023/05/29 13:34:06;;;;;;;;;;;;;;;23.43;47.11;101432.71;2251560;78;50784;-78
2023/05/29 13:37:08;;;;;;;;;;;;;;;23.43;47.17;101425.44;2251233;78;51438;-77
2023/05/29 13:40:09;;;;;;;;;;;;;;;23.39;47.23;101420.62;2251753;77;51467;-77
2023/05/29 13:43:11;;;;;;;;;;;;;;;23.41;47.21;101419.91;2251839;77;51515;-76
2023/05/29 13:46:13;;;;;;;;;;;;;;;23.42;47.18;101429.15;2251773;78;50735;-76
2023/05/29 13:49:14;;;;;;;;;;;;;;;23.41;47.21;101430.19;2251882;77;50003;-77
2023/05/29 13:52:16;;;;;;;;;;;;;;;23.41;47.26;101423.97;2251171;78;49591;-77
2023/05/29 13:55:18;;;;;;;;;;;;;;;23.41;47.28;101422.61;2251421;79;50047;-77
2023/05/29 13:58:19;;;;;;;;;;;;;;;23.42;47.33;101420.22;2265812;77;50429;-77
2023/05/29 14:01:21;;;;;;;;;;;;;;;23.39;47.39;101421.97;2213712;79;50367;-77
2023/05/29 14:04:23;;;;;;;;;;;;;;;23.41;47.39;101423.97;2252319;77;49681;-77
2023/05/29 14:07:25;;;;;;;;;;;;;;;23.40;47.42;101424.48;2252170;77;50272;-77
2023/05/29 14:10:26;;;;;;;;;;;;;;;23.42;47.38;101432.38;2252127;77;51566;-77
2023/05/29 14:13:28;;;;;;;;;;;;;;;23.39;47.44;101420.62;2252563;78;50366;-77
2023/05/29 14:16:29;;;;;;;;;;;;;;;23.39;47.46;101428.20;2226385;78;49545;-78
2023/05/29 14:19:31;;;;;;;;;;;;;;;23.41;47.46;101434.25;2252365;77;52249;-77
2023/05/29 14:22:33;;;;;;;;;;;;;;;23.39;47.52;101435.47;2252540;79;50435;-78
2023/05/29 14:25:34;;;;;;;;;;;;;;;23.41;47.53;101432.06;2252591;78;50683;-78
2023/05/29 14:28:36;;;;;;;;;;;;;;;23.40;47.54;101435.78;2251960;77;50875;-78
2023/05/29 14:31:38;;;;;;;;;;;;;;;23.39;47.56;101431.42;2281829;77;50315;-76
2023/05/29 14:34:40;;;;;;;;;;;;;;;23.38;47.58;101423.84;2292920;77;50418;-76
2023/05/29 14:37:41;;;;;;;;;;;;;;;23.39;47.56;101416.56;2292010;77;50127;-76
2023/05/29 14:40:43;;;;;;;;;;;;;;;23.39;47.60;101424.67;2292882;76;50119;-76
2023/05/29 14:43:44;;;;;;;;;;;;;;;23.41;47.55;101419.91;2290648;77;51504;-76
2023/05/29 14:46:46;;;;;;;;;;;;;;;23.42;47.52;101410.77;2290371;77;50674;-76
2023/05/29 14:49:48;;;;;;;;;;;;;;;23.43;47.51;101408.41;2292782;76;51472;-76
2023/05/29 14:52:49;;;;;;;;;;;;;;;23.43;47.50;101404.35;2267175;77;51806;-76
2023/05/29 14:55:51;;;;;;;;;;;;;;;23.44;47.57;101400.09;2290551;77;51513;-76
2023/05/29 14:58:52;;;;;;;;;;;;;;;23.47;47.55;101405.61;2269637;77;51604;-76
2023/05/29 15:01:56;;;;;;;;;;;;;;;23.46;47.55;101407.48;2286359;77;50688;-76
2023/05/29 15:04:57;;;;;;;;;;;;;;;23.45;47.62;101411.72;2290861;77;23199;-76
2023/05/29 15:07:59;;;;;;;;;;;;;;;23.42;47.70;101408.89;2292467;77;51456;-76
2023/05/29 15:11:02;;;;;;;;;;;;;;;23.47;47.65;101417.77;2290414;76;51639;-76
2023/05/29 15:14:04;;;;;;;;;;;;;;;23.50;47.57;101413.31;2290445;77;51547;-77
2023/05/29 15:17:06;;;;;;;;;;;;;;;23.48;47.60;101406.77;2292781;77;52399;-76
2023/05/29 15:20:08;;;;;;;;;;;;;;;23.46;47.64;101406.66;2292712;76;52713;-76
2023/05/29 15:23:09;;;;;;;;;;;;;;;23.44;47.69;101402.78;2290710;77;50805;-76
2023/05/29 15:26:11;;;;;;;;;;;;;;;23.46;47.66;101395.33;2292442;77;51726;-76
2023/05/29 15:29:13;;;;;;;;;;;;;;;23.49;47.60;101392.75;2267302;77;51006;-76
2023/05/29 15:32:14;;;;;;;;;;;;;;;23.50;47.63;101391.70;2251757;78;51515;-76
2023/05/29 15:35:16;;;;;;;;;;;;;;;23.49;47.69;101391.39;2251297;78;50640;-77
2023/05/29 15:38:17;;;;;;;;;;;;;;;23.46;47.71;101393.97;2251503;78;52149;-76